createdAt,value
2018-12-12T00:01:23.032Z,18.83
2018-12-12T00:03:55.875Z,19.20
2018-12-12T00:06:27.865Z,19.83
2018-12-12T00:08:58.991Z,18.87
2018-12-12T00:11:32.524Z,19.27
2018-12-12T00:14:04.751Z,18.60
2018-12-12T00:16:34.988Z,19.70
2018-12-12T00:19:07.183Z,18.67
2018-12-12T00:21:37.859Z,18.03
2018-12-12T00:24:09.778Z,19.13
2018-12-12T00:26:42.579Z,19.03
2018-12-12T00:29:14.539Z,19.70
2018-12-12T00:31:44.632Z,18.70
2018-12-12T00:34:17.060Z,19.23
2018-12-12T00:36:49.340Z,18.70
2018-12-12T00:39:21.367Z,18.50
2018-12-12T00:41:53.727Z,19.67
2018-12-12T00:44:26.065Z,19.83
2018-12-12T00:46:58.375Z,19.57
2018-12-12T00:49:31.066Z,20.00
2018-12-12T00:52:03.348Z,20.57
2018-12-12T00:54:35.429Z,20.27
2018-12-12T00:57:07.738Z,19.73
2018-12-12T00:59:38.430Z,20.30
2018-12-12T01:02:10.392Z,20.17
2018-12-12T01:04:43.211Z,21.80
2018-12-12T01:07:17.956Z,20.70
2018-12-12T01:09:50.932Z,19.83
2018-12-12T01:12:23.402Z,21.47
2018-12-12T01:14:56.294Z,20.03
2018-12-12T01:17:29.101Z,19.97
2018-12-12T01:20:01.587Z,20.07
2018-12-12T01:22:34.482Z,19.07
2018-12-12T01:25:06.735Z,20.27
2018-12-12T01:27:39.334Z,20.33
2018-12-12T01:30:12.001Z,18.80
2018-12-12T01:32:44.791Z,20.00
2018-12-12T01:35:15.775Z,20.27
2018-12-12T01:37:48.470Z,20.37
2018-12-12T01:40:20.457Z,19.40
2018-12-12T01:42:52.573Z,19.80
2018-12-12T01:45:25.404Z,20.60
2018-12-12T01:47:57.526Z,20.13
2018-12-12T01:50:30.773Z,20.97
2018-12-12T01:53:03.825Z,20.33
2018-12-12T01:55:34.733Z,22.00
2018-12-12T01:58:07.618Z,21.10
2018-12-12T02:00:39.493Z,20.70
2018-12-12T02:03:11.672Z,21.57
2018-12-12T02:05:43.653Z,20.17
2018-12-12T02:08:20.025Z,20.90
2018-12-12T02:10:53.041Z,20.17
2018-12-12T02:13:42.379Z,20.70
2018-12-12T02:16:16.381Z,20.57
2018-12-12T02:18:49.148Z,19.83
2018-12-12T02:21:22.245Z,20.73
2018-12-12T02:23:55.001Z,20.63
2018-12-12T02:26:27.225Z,20.30
2018-12-12T02:29:00.326Z,20.47
2018-12-12T02:31:33.129Z,21.43
2018-12-12T02:34:05.197Z,21.93
2018-12-12T02:36:37.395Z,21.90
2018-12-12T02:39:09.562Z,21.13
2018-12-12T02:41:40.342Z,20.87
2018-12-12T02:44:12.473Z,20.03
2018-12-12T02:46:45.485Z,20.40
2018-12-12T02:49:17.507Z,22.37
2018-12-12T02:51:49.783Z,22.57
2018-12-12T02:54:24.227Z,21.97
2018-12-12T02:56:56.796Z,22.30
2018-12-12T02:59:28.880Z,21.40
2018-12-12T03:02:03.489Z,22.70
2018-12-12T03:04:36.890Z,21.40
2018-12-12T03:07:07.342Z,20.77
2018-12-12T03:09:38.207Z,22.00
2018-12-12T03:12:11.276Z,22.63
2018-12-12T03:14:44.234Z,22.53
2018-12-12T03:17:16.245Z,21.17
2018-12-12T03:19:48.717Z,21.33
2018-12-12T03:22:21.527Z,23.40
2018-12-12T03:24:54.590Z,22.33
2018-12-12T03:27:27.028Z,22.03
2018-12-12T03:29:59.196Z,21.93
2018-12-12T03:32:31.260Z,23.13
2018-12-12T03:35:03.381Z,22.53
2018-12-12T03:37:35.234Z,22.20
2018-12-12T03:40:07.697Z,22.47
2018-12-12T03:42:40.781Z,22.33
2018-12-12T03:45:13.572Z,23.97
2018-12-12T03:47:45.654Z,23.67
2018-12-12T03:50:17.931Z,23.40
2018-12-12T03:52:49.750Z,24.20
2018-12-12T03:55:20.168Z,22.77
2018-12-12T03:57:50.984Z,23.03
2018-12-12T04:00:22.990Z,23.57
2018-12-12T04:02:55.141Z,23.73
2018-12-12T04:05:26.997Z,23.40
2018-12-12T04:07:59.007Z,24.07
2018-12-12T04:10:30.917Z,23.63
2018-12-12T04:13:04.672Z,23.70
2018-12-12T04:15:36.956Z,23.77
2018-12-12T04:18:09.569Z,23.87
2018-12-12T04:20:39.732Z,22.40
2018-12-12T04:23:11.848Z,23.20
2018-12-12T04:25:43.745Z,23.60
2018-12-12T04:28:17.919Z,22.17
2018-12-12T04:30:50.684Z,23.30
2018-12-12T04:33:23.108Z,23.13
2018-12-12T04:35:56.825Z,23.70
2018-12-12T04:38:29.149Z,23.80
2018-12-12T04:40:59.968Z,25.23
2018-12-12T04:43:32.277Z,23.63
2018-12-12T04:46:04.340Z,23.97
2018-12-12T04:48:37.373Z,23.10
2018-12-12T04:51:10.193Z,22.77
2018-12-12T04:53:42.385Z,22.90
2018-12-12T04:56:13.281Z,22.87
2018-12-12T04:58:45.403Z,23.33
2018-12-12T05:01:17.667Z,23.57
2018-12-12T05:03:49.884Z,23.33
2018-12-12T05:06:21.887Z,23.47
2018-12-12T05:08:54.352Z,23.90
2018-12-12T05:11:27.140Z,23.43
2018-12-12T05:13:59.128Z,23.93
2018-12-12T05:16:31.216Z,24.67
2018-12-12T05:19:02.161Z,23.93
2018-12-12T05:21:33.083Z,26.00
2018-12-12T05:24:06.024Z,25.93
2018-12-12T05:26:36.880Z,24.43
2018-12-12T05:29:09.003Z,25.10
2018-12-12T05:31:41.393Z,24.17
2018-12-12T05:34:13.404Z,25.53
2018-12-12T05:36:47.524Z,23.37
2018-12-12T05:39:19.803Z,23.33
2018-12-12T05:41:52.639Z,24.23
2018-12-12T05:44:24.713Z,24.13
2018-12-12T05:46:56.697Z,23.33
2018-12-12T05:49:28.708Z,23.73
2018-12-12T05:52:01.004Z,25.20
2018-12-12T05:54:33.657Z,24.73
2018-12-12T05:57:06.336Z,25.30
2018-12-12T05:59:38.855Z,24.00
2018-12-12T06:02:10.876Z,25.30
2018-12-12T06:04:42.740Z,25.77
2018-12-12T06:07:14.798Z,24.40
2018-12-12T06:09:47.911Z,24.80
2018-12-12T06:12:20.294Z,26.30
2018-12-12T06:14:54.087Z,26.80
2018-12-12T06:17:26.107Z,26.83
2018-12-12T06:19:58.491Z,25.97
2018-12-12T06:22:37.363Z,25.03
2018-12-12T06:25:06.489Z,25.23
2018-12-12T06:27:38.536Z,25.63
2018-12-12T06:30:10.979Z,26.67
2018-12-12T06:32:43.888Z,26.80
2018-12-12T06:35:15.846Z,26.43
2018-12-12T06:37:47.917Z,24.87
2018-12-12T06:40:19.958Z,26.03
2018-12-12T06:42:52.023Z,26.30
2018-12-12T06:45:22.099Z,25.80
2018-12-12T06:47:54.304Z,25.03
2018-12-12T06:50:27.386Z,25.57
2018-12-12T06:52:59.764Z,26.47
2018-12-12T06:55:32.178Z,26.83
2018-12-12T06:58:04.325Z,27.77
2018-12-12T07:00:37.212Z,25.93
2018-12-12T07:03:09.168Z,26.57
2018-12-12T07:05:41.447Z,27.90
2018-12-12T07:08:14.323Z,27.67
2018-12-12T07:10:47.206Z,27.63
2018-12-12T07:13:20.030Z,28.13
2018-12-12T07:15:54.226Z,28.27
2018-12-12T07:18:26.954Z,28.57
2018-12-12T07:20:59.057Z,29.20
2018-12-12T07:23:31.229Z,28.60
2018-12-12T07:26:03.169Z,29.67
2018-12-12T07:28:35.459Z,28.63
2018-12-12T07:31:06.269Z,27.47
2018-12-12T07:33:38.675Z,29.47
2018-12-12T07:36:10.676Z,29.07
2018-12-12T07:38:43.801Z,28.17
2018-12-12T07:41:17.067Z,28.50
2018-12-12T07:43:50.320Z,28.40
2018-12-12T07:46:29.099Z,26.67
2018-12-12T07:49:02.650Z,27.07
2018-12-12T07:51:35.224Z,27.40
2018-12-12T07:54:10.709Z,26.67
2018-12-12T07:59:12.584Z,26.90
2018-12-12T08:01:47.077Z,26.63
2018-12-12T08:04:19.740Z,29.07
2018-12-12T08:06:51.789Z,29.60
2018-12-12T08:09:24.929Z,28.20
2018-12-12T08:11:57.082Z,27.70
2018-12-12T08:14:28.582Z,27.80
2018-12-12T08:17:01.319Z,27.10
2018-12-12T08:19:34.272Z,27.93
2018-12-12T08:22:06.583Z,25.47
2018-12-12T08:24:39.902Z,25.07
2018-12-12T08:27:12.219Z,27.50
2018-12-12T08:29:44.210Z,27.83
2018-12-12T08:32:18.598Z,28.50
2018-12-12T08:34:51.421Z,28.07
2018-12-12T08:37:24.337Z,27.37
2018-12-12T08:39:56.497Z,27.80
2018-12-12T08:42:28.778Z,26.33
2018-12-12T08:44:58.720Z,27.97
2018-12-12T08:47:30.799Z,28.83
2018-12-12T08:50:04.965Z,27.27
2018-12-12T08:52:37.734Z,26.00
2018-12-12T08:55:08.693Z,25.93
2018-12-12T08:57:41.182Z,27.13
2018-12-12T09:00:13.761Z,27.60
2018-12-12T09:02:46.805Z,24.53
2018-12-12T09:05:19.777Z,26.63
2018-12-12T09:07:52.121Z,26.70
2018-12-12T09:10:24.115Z,26.70
2018-12-12T09:12:56.284Z,25.67
2018-12-12T09:15:30.804Z,25.53
2018-12-12T09:18:05.676Z,27.10
2018-12-12T09:20:36.273Z,26.90
2018-12-12T09:23:08.275Z,26.03
2018-12-12T09:25:40.371Z,26.23
2018-12-12T09:28:11.335Z,24.23
2018-12-12T09:30:43.385Z,23.90
2018-12-12T09:33:15.380Z,25.57
2018-12-12T09:35:49.724Z,25.50
2018-12-12T09:38:22.188Z,25.23
2018-12-12T09:40:54.972Z,24.53
2018-12-12T09:43:27.576Z,24.63
2018-12-12T09:45:58.421Z,25.53
2018-12-12T09:48:31.012Z,23.37
2018-12-12T09:51:07.312Z,22.43
2018-12-12T09:53:38.451Z,22.20
2018-12-12T09:56:09.259Z,21.30
2018-12-12T09:58:41.519Z,22.40
2018-12-12T10:01:13.488Z,22.67
2018-12-12T10:03:45.767Z,21.80
2018-12-12T10:06:17.905Z,22.17
2018-12-12T10:08:49.989Z,21.00
2018-12-12T10:11:20.868Z,20.50
2018-12-12T10:13:52.984Z,20.80
2018-12-12T10:16:23.662Z,18.70
2018-12-12T10:18:55.689Z,19.77
2018-12-12T10:21:30.227Z,18.67
2018-12-12T10:24:03.099Z,18.90
2018-12-12T10:26:35.079Z,19.07
2018-12-12T10:29:05.856Z,19.07
2018-12-12T10:31:38.744Z,18.70
2018-12-12T10:34:11.705Z,18.50
2018-12-12T10:36:45.960Z,17.83
2018-12-12T10:39:18.891Z,17.80
2018-12-12T10:41:50.976Z,16.80
2018-12-12T10:44:22.000Z,16.97
2018-12-12T10:46:53.311Z,17.00
2018-12-12T10:49:23.836Z,17.53
2018-12-12T10:51:56.636Z,17.30
2018-12-12T10:54:28.732Z,17.97
2018-12-12T10:57:00.769Z,16.20
2018-12-12T11:02:08.097Z,16.57
2018-12-12T11:04:41.007Z,16.87
2018-12-12T11:07:13.933Z,15.73
2018-12-12T11:09:46.233Z,15.13
2018-12-12T11:12:18.315Z,15.53
2018-12-12T11:14:50.631Z,16.27
2018-12-12T11:17:22.780Z,16.43
2018-12-12T11:19:54.938Z,16.13
2018-12-12T11:22:26.967Z,16.83
2018-12-12T11:24:59.155Z,16.70
2018-12-12T11:27:29.985Z,16.57
2018-12-12T11:30:02.876Z,15.43
2018-12-12T11:32:35.375Z,16.57
2018-12-12T11:35:07.650Z,16.10
2018-12-12T11:37:40.573Z,15.03
2018-12-12T11:40:13.431Z,14.17
2018-12-12T11:42:44.450Z,14.57
2018-12-12T11:45:17.212Z,13.43
2018-12-12T11:47:47.876Z,13.97
2018-12-12T11:50:21.306Z,13.60
2018-12-12T11:52:52.051Z,12.30
2018-12-12T11:55:25.479Z,12.13
2018-12-12T11:57:57.991Z,11.97
2018-12-12T12:00:31.001Z,11.03
2018-12-12T12:05:31.266Z,11.07
2018-12-12T12:08:03.347Z,10.87
2018-12-12T12:10:35.452Z,12.13
2018-12-12T12:13:08.500Z,11.33
2018-12-12T12:15:40.925Z,11.70
2018-12-12T12:18:13.081Z,10.97
2018-12-12T12:20:46.637Z,11.27
2018-12-12T12:23:17.027Z,11.37
2018-12-12T12:25:51.419Z,10.27
2018-12-12T12:28:23.881Z,10.47
2018-12-12T12:30:56.715Z,9.83
2018-12-12T12:33:28.751Z,9.10
2018-12-12T12:36:01.600Z,9.00
2018-12-12T12:38:34.374Z,9.03
2018-12-12T12:41:06.462Z,8.70
2018-12-12T12:43:38.808Z,8.97
2018-12-12T12:46:11.878Z,9.27
2018-12-12T12:48:44.811Z,8.70
2018-12-12T12:51:17.285Z,7.50
2018-12-12T12:53:50.092Z,7.57
2018-12-12T12:56:20.853Z,7.87
2018-12-12T12:58:54.769Z,7.03
2018-12-12T13:01:27.243Z,7.43
2018-12-12T13:03:59.817Z,6.40
2018-12-12T13:06:34.171Z,7.20
2018-12-12T13:09:08.965Z,11.40
2018-12-12T13:11:42.342Z,11.87
2018-12-12T13:14:15.090Z,11.47
2018-12-12T13:16:47.884Z,12.57
2018-12-12T13:19:28.471Z,13.33
2018-12-12T13:22:00.647Z,12.43
2018-12-12T13:24:32.689Z,11.93
2018-12-12T13:27:05.096Z,12.77
2018-12-12T13:29:37.994Z,11.07
2018-12-12T13:32:09.977Z,11.53
2018-12-12T13:34:40.857Z,9.93
2018-12-12T13:37:13.028Z,10.83
2018-12-12T13:39:45.264Z,11.70
2018-12-12T13:42:17.400Z,11.30
2018-12-12T13:44:50.314Z,11.20
2018-12-12T13:47:23.142Z,10.97
2018-12-12T13:49:55.554Z,11.23
2018-12-12T13:52:29.322Z,10.47
2018-12-12T13:55:01.415Z,11.33
2018-12-12T13:57:39.346Z,10.60
2018-12-12T14:00:10.449Z,9.90
2018-12-12T14:02:42.462Z,6.80
2018-12-12T14:05:14.704Z,6.80
2018-12-12T14:07:48.080Z,5.27
2018-12-12T14:10:20.891Z,3.90
2018-12-12T14:12:51.737Z,3.93
2018-12-12T14:15:26.198Z,3.70
2018-12-12T14:17:58.524Z,4.20
2018-12-12T14:20:30.653Z,4.10
2018-12-12T14:23:01.613Z,3.87
2018-12-12T14:25:34.458Z,4.27
2018-12-12T14:28:15.507Z,3.30
2018-12-12T14:30:51.370Z,3.77
2018-12-12T14:33:33.208Z,4.53
2018-12-12T14:36:03.778Z,4.87
2018-12-12T14:38:35.999Z,4.93
2018-12-12T14:41:10.241Z,3.93
2018-12-12T14:43:43.054Z,4.20
2018-12-12T14:46:15.187Z,4.23
2018-12-12T14:48:47.222Z,4.03
2018-12-12T14:51:19.316Z,4.40
2018-12-12T14:53:53.587Z,4.17
2018-12-12T14:56:26.289Z,4.90
2018-12-12T14:58:58.463Z,3.97
2018-12-12T15:01:32.057Z,3.83
2018-12-12T15:04:04.256Z,3.73
2018-12-12T15:06:37.390Z,3.50
2018-12-12T15:09:10.413Z,4.13
2018-12-12T15:11:43.425Z,4.00
2018-12-12T15:14:16.116Z,3.40
2018-12-12T15:16:52.175Z,3.80
2018-12-12T15:19:27.317Z,4.10
2018-12-12T15:21:59.586Z,3.80
2018-12-12T15:24:30.415Z,6.63
2018-12-12T15:27:01.370Z,5.30
2018-12-12T15:29:33.583Z,5.13
2018-12-12T15:32:06.495Z,5.80
2018-12-12T15:34:42.293Z,6.27
2018-12-12T15:37:12.167Z,6.60
2018-12-12T15:39:45.167Z,7.43
2018-12-12T15:42:15.972Z,7.60
2018-12-12T15:44:48.899Z,7.90
2018-12-12T15:47:21.881Z,8.20
2018-12-12T15:49:54.838Z,8.27
2018-12-12T15:52:26.869Z,9.67
2018-12-12T15:55:01.101Z,7.70
2018-12-12T15:57:33.995Z,7.90
2018-12-12T16:00:05.519Z,8.00
2018-12-12T16:02:40.280Z,8.27
2018-12-12T16:05:12.535Z,8.60
2018-12-12T16:07:44.644Z,9.00
2018-12-12T16:10:16.753Z,9.60
2018-12-12T16:12:52.869Z,9.93
2018-12-12T16:15:24.949Z,9.80
2018-12-12T16:17:55.831Z,8.73
2018-12-12T16:20:28.692Z,10.80
2018-12-12T16:23:01.060Z,9.53
2018-12-12T16:25:31.888Z,10.13
2018-12-12T16:28:05.073Z,9.97
2018-12-12T16:30:37.980Z,11.70
2018-12-12T16:33:10.918Z,12.50
2018-12-12T16:35:43.717Z,10.97
2018-12-12T16:38:15.784Z,12.20
2018-12-12T16:40:48.728Z,11.10
2018-12-12T16:43:21.003Z,13.23
2018-12-12T16:45:53.383Z,13.20
2018-12-12T16:48:26.276Z,11.90
2018-12-12T16:50:59.199Z,11.93
2018-12-12T16:53:32.933Z,12.07
2018-12-12T16:56:06.065Z,13.47
2018-12-12T16:58:38.900Z,13.37
2018-12-12T17:01:11.715Z,13.17
2018-12-12T17:03:44.619Z,12.93
2018-12-12T17:06:18.195Z,12.10
2018-12-12T17:08:50.929Z,12.50
2018-12-12T17:21:21.890Z,12.03
2018-12-12T17:23:54.428Z,12.23
2018-12-12T17:26:27.715Z,12.60
2018-12-12T17:29:00.837Z,12.27
2018-12-12T17:31:34.310Z,11.03
2018-12-12T17:34:07.942Z,11.03
2018-12-12T17:36:39.253Z,11.33
2018-12-12T17:39:11.916Z,11.73
2018-12-12T17:41:45.428Z,12.27
2018-12-12T17:44:18.117Z,12.00
2018-12-12T17:46:52.119Z,11.37
2018-12-12T17:49:25.159Z,11.57
2018-12-12T17:51:58.315Z,11.07
2018-12-12T17:54:31.672Z,12.50
2018-12-12T17:57:04.723Z,11.97
2018-12-12T17:59:37.833Z,14.00
2018-12-12T18:02:09.047Z,11.93
2018-12-12T18:04:42.721Z,12.67
2018-12-12T18:07:14.311Z,11.87
2018-12-12T18:09:48.055Z,11.80
2018-12-12T18:12:21.551Z,11.50
2018-12-12T18:14:54.333Z,11.30
2018-12-12T18:17:27.474Z,11.43
2018-12-12T18:20:00.484Z,10.73
2018-12-12T18:22:33.660Z,10.30
2018-12-12T18:25:06.727Z,11.20
2018-12-12T18:27:39.897Z,11.33
2018-12-12T18:30:10.955Z,11.43
2018-12-12T18:32:44.103Z,10.53
2018-12-12T18:35:21.814Z,11.50
2018-12-12T18:37:53.144Z,10.50
2018-12-12T18:40:26.761Z,12.17
2018-12-12T18:42:59.343Z,10.07
2018-12-12T18:45:30.250Z,9.57
2018-12-12T18:48:03.798Z,8.37
2018-12-12T18:50:37.455Z,6.33
2018-12-12T18:53:17.328Z,5.50
2018-12-12T18:55:52.090Z,5.77
2018-12-12T18:58:24.804Z,5.60
2018-12-12T19:00:58.228Z,4.67
2018-12-12T19:03:31.972Z,4.67
2018-12-12T19:06:06.063Z,3.77
2018-12-12T19:08:39.687Z,4.10
2018-12-12T19:11:12.321Z,4.13
2018-12-12T19:13:45.446Z,4.20
2018-12-12T19:16:18.692Z,4.33
2018-12-12T19:18:51.611Z,4.10
2018-12-12T19:21:24.613Z,3.60
2018-12-12T19:23:57.618Z,3.73
2018-12-12T19:26:30.669Z,3.90
2018-12-12T19:29:04.534Z,4.07
2018-12-12T19:31:37.659Z,3.87
2018-12-12T19:34:10.425Z,3.40
2018-12-12T19:36:41.340Z,3.80
2018-12-12T19:39:15.703Z,3.40
2018-12-12T19:41:48.841Z,3.40
2018-12-12T19:44:21.521Z,3.50
2018-12-12T19:46:54.924Z,3.47
2018-12-12T19:49:27.845Z,3.90
2018-12-12T19:52:00.856Z,3.53
2018-12-12T19:54:34.788Z,3.67
2018-12-12T19:57:08.006Z,3.37
2018-12-12T19:59:41.090Z,3.37
2018-12-12T20:02:12.019Z,3.97
2018-12-12T20:04:45.180Z,3.93
2018-12-12T20:07:17.924Z,5.80
2018-12-12T20:09:52.086Z,6.20
2018-12-12T20:12:25.456Z,5.93
2018-12-12T20:14:58.194Z,5.87
2018-12-12T20:17:31.861Z,5.93
2018-12-12T20:20:05.767Z,5.50
2018-12-12T20:22:38.331Z,6.60
2018-12-12T20:27:41.776Z,5.00
2018-12-12T20:30:13.294Z,4.27
2018-12-12T20:32:46.383Z,5.10
2018-12-12T20:35:19.220Z,4.53
2018-12-12T20:37:52.351Z,4.63
2018-12-12T20:40:25.479Z,4.10
2018-12-12T20:42:56.770Z,4.17
2018-12-12T20:45:29.397Z,4.23
2018-12-12T20:48:02.844Z,4.67
2018-12-12T20:50:33.412Z,3.73
2018-12-12T20:53:06.772Z,4.37
2018-12-12T20:55:40.125Z,3.90
2018-12-12T20:58:12.665Z,3.40
2018-12-12T21:00:43.644Z,3.70
2018-12-12T21:03:16.941Z,4.13
2018-12-12T21:05:54.438Z,4.20
2018-12-12T21:08:25.136Z,3.87
2018-12-12T21:10:58.192Z,4.30
2018-12-12T21:13:31.074Z,3.50
2018-12-12T21:16:04.176Z,3.97
2018-12-12T21:18:37.773Z,4.20
2018-12-12T21:21:10.332Z,4.30
2018-12-12T21:23:42.742Z,4.80
2018-12-12T21:28:42.613Z,5.00
2018-12-12T21:31:15.963Z,5.37
2018-12-12T21:33:48.752Z,5.20
2018-12-12T21:36:21.964Z,5.60
2018-12-12T21:38:53.268Z,5.20
2018-12-12T21:41:26.715Z,5.60
2018-12-12T21:43:57.909Z,5.20
2018-12-12T21:46:29.625Z,5.40
2018-12-12T21:49:02.912Z,6.23
2018-12-12T21:51:33.688Z,5.87
2018-12-12T21:54:06.552Z,5.40
2018-12-12T21:56:38.928Z,5.97
2018-12-12T21:59:11.862Z,6.23
2018-12-12T22:01:45.059Z,6.40
2018-12-12T22:04:18.102Z,7.03
2018-12-12T22:06:49.256Z,5.73
2018-12-12T22:09:22.251Z,6.67
2018-12-12T22:11:55.379Z,6.57
2018-12-12T22:14:28.606Z,7.40
2018-12-12T22:17:01.620Z,6.27
2018-12-12T22:19:34.701Z,7.07
2018-12-12T22:22:07.598Z,6.80
2018-12-12T22:24:40.497Z,7.53
2018-12-12T22:27:13.371Z,7.10
2018-12-12T22:29:45.440Z,6.80
2018-12-12T22:32:17.676Z,6.47
2018-12-12T22:34:47.738Z,6.63
2018-12-12T22:37:17.583Z,7.27
2018-12-12T22:39:49.589Z,7.10
2018-12-12T22:42:21.533Z,7.50
2018-12-12T22:44:54.292Z,7.03
2018-12-12T22:47:26.310Z,7.03
2018-12-12T22:49:58.372Z,7.33
2018-12-12T22:52:31.001Z,7.10
2018-12-12T22:55:03.074Z,7.23
2018-12-12T22:57:35.784Z,7.50
2018-12-12T23:00:10.313Z,7.03
2018-12-12T23:02:41.305Z,7.10
2018-12-12T23:05:13.348Z,7.13
2018-12-12T23:07:45.420Z,6.60
2018-12-12T23:10:17.434Z,6.93
2018-12-12T23:12:48.248Z,6.57
2018-12-12T23:15:18.513Z,7.43
2018-12-12T23:17:51.357Z,6.80
2018-12-12T23:20:23.400Z,6.47
2018-12-12T23:22:53.756Z,7.07
2018-12-12T23:25:25.740Z,7.30
2018-12-12T23:30:28.090Z,6.40
2018-12-12T23:33:00.507Z,7.13
2018-12-12T23:35:34.705Z,6.73
2018-12-12T23:38:07.385Z,7.00
2018-12-12T23:40:39.419Z,6.30
2018-12-12T23:43:11.463Z,6.90
2018-12-12T23:45:45.800Z,6.57
2018-12-12T23:48:16.401Z,6.47
2018-12-12T23:50:48.806Z,6.97
2018-12-12T23:53:20.755Z,7.30
2018-12-12T23:55:52.799Z,6.57
2018-12-12T23:58:24.799Z,6.33
